Private Wetterstation Sandau
Wetterdaten: Dienstag, 12.06.2012
Datum Zeit Temp. A. Feuchte A. Luftdruck Regen Wind Richtung Richtung Taupunkt Windchill
12.06.2012 00:01 17,1 C 61 % 1003,5 hPa 0,0 l/m 2,9 km/h (1 Bft) O-NO 67 9,5 C 17,1 C
12.06.2012 00:06 17,1 C 62 % 1003,5 hPa 0,0 l/m 1,1 km/h (1 Bft) O 90 9,8 C 17,1 C
12.06.2012 00:11 17,1 C 62 % 1003,5 hPa 0,0 l/m 4,7 km/h (1 Bft) O-NO 67 9,8 C 17,1 C
12.06.2012 00:16 16,9 C 62 % 1003,4 hPa 0,0 l/m 0,0 km/h (0 Bft) O-NO 67 9,6 C 16,9 C
12.06.2012 00:21 16,9 C 63 % 1003,5 hPa 0,0 l/m 3,2 km/h (1 Bft) O-NO 67 9,8 C 16,9 C
12.06.2012 00:26 16,8 C 63 % 1003,4 hPa 0,0 l/m 4,0 km/h (1 Bft) O-SO 112 9,7 C 16,8 C
12.06.2012 00:31 16,7 C 63 % 1003,4 hPa 0,0 l/m 2,2 km/h (1 Bft) O-NO 67 9,6 C 16,7 C
12.06.2012 00:36 16,6 C 64 % 1003,4 hPa 0,0 l/m 0,0 km/h (0 Bft) O 90 9,8 C 16,6 C
12.06.2012 00:41 16,6 C 64 % 1003,5 hPa 0,0 l/m 0,0 km/h (0 Bft) SO 135 9,8 C 16,6 C
12.06.2012 00:46 16,7 C 64 % 1003,5 hPa 0,0 l/m 1,8 km/h (1 Bft) S-SO 157 9,9 C 16,7 C
12.06.2012 00:51 16,8 C 64 % 1003,5 hPa 0,0 l/m 4,0 km/h (1 Bft) SO 135 10,0 C 16,8 C
12.06.2012 00:56 16,8 C 64 % 1003,4 hPa 0,0 l/m 5,0 km/h (1 Bft) SO 135 10,0 C 16,8 C
12.06.2012 01:01 16,8 C 64 % 1003,3 hPa 0,0 l/m 0,0 km/h (0 Bft) SO 135 10,0 C 16,8 C
12.06.2012 01:06 16,8 C 64 % 1003,4 hPa 0,0 l/m 0,0 km/h (0 Bft) O-SO 112 10,0 C 16,8 C
12.06.2012 01:11 16,8 C 64 % 1003,2 hPa 0,0 l/m 0,0 km/h (0 Bft) S-SO 157 10,0 C 16,8 C
12.06.2012 01:16 16,8 C 64 % 1003,1 hPa 0,0 l/m 1,4 km/h (1 Bft) S-SO 157 10,0 C 16,8 C
12.06.2012 01:21 16,8 C 64 % 1003,0 hPa 0,0 l/m 0,0 km/h (0 Bft) SO 135 10,0 C 16,8 C
12.06.2012 01:26 16,9 C 64 % 1003,0 hPa 0,0 l/m 3,6 km/h (1 Bft) S 180 10,0 C 16,9 C
12.06.2012 01:31 16,8 C 64 % 1003,0 hPa 0,0 l/m 1,8 km/h (1 Bft) SO 135 10,0 C 16,8 C
12.06.2012 01:36 16,8 C 64 % 1003,0 hPa 0,0 l/m 2,9 km/h (1 Bft) S-SW 202 10,0 C 16,8 C
12.06.2012 01:41 16,8 C 64 % 1003,1 hPa 0,0 l/m 4,0 km/h (1 Bft) S 180 10,0 C 16,8 C
12.06.2012 01:46 16,6 C 64 % 1003,1 hPa 0,0 l/m 3,6 km/h (1 Bft) SO 135 9,8 C 16,6 C
12.06.2012 01:51 16,6 C 64 % 1003,0 hPa 0,0 l/m 0,0 km/h (0 Bft) S 180 9,8 C 16,6 C
12.06.2012 01:56 16,5 C 65 % 1003,0 hPa 0,0 l/m 3,6 km/h (1 Bft) S-SW 202 9,9 C 16,5 C
12.06.2012 02:01 16,5 C 65 % 1003,0 hPa 0,0 l/m 0,0 km/h (0 Bft) SO 135 9,9 C 16,5 C
12.06.2012 02:06 16,5 C 66 % 1003,0 hPa 0,0 l/m 0,0 km/h (0 Bft) S-SO 157 10,1 C 16,5 C
12.06.2012 02:11 16,4 C 66 % 1003,0 hPa 0,0 l/m 2,2 km/h (1 Bft) SO 135 10,0 C 16,4 C
12.06.2012 02:16 16,4 C 66 % 1003,0 hPa 0,0 l/m 0,0 km/h (0 Bft) S-SO 157 10,0 C 16,4 C
12.06.2012 02:21 16,4 C 67 % 1003,0 hPa 0,0 l/m 1,8 km/h (1 Bft) S-SO 157 10,3 C 16,4 C
12.06.2012 02:26 16,4 C 67 % 1003,0 hPa 0,0 l/m 2,9 km/h (1 Bft) S-SO 157 10,3 C 16,4 C
12.06.2012 02:31 16,4 C 67 % 1002,9 hPa 0,0 l/m 3,6 km/h (1 Bft) S-SO 157 10,3 C 16,4 C
12.06.2012 02:36 16,4 C 67 % 1002,8 hPa 0,0 l/m 0,0 km/h (0 Bft) O-SO 112 10,3 C 16,4 C
12.06.2012 02:41 16,3 C 67 % 1002,9 hPa 0,0 l/m 1,4 km/h (1 Bft) S-SO 157 10,2 C 16,3 C
12.06.2012 02:46 16,4 C 67 % 1002,8 hPa 0,0 l/m 1,8 km/h (1 Bft) S-SO 157 10,3 C 16,4 C
12.06.2012 02:51 16,4 C 67 % 1002,9 hPa 0,0 l/m 2,2 km/h (1 Bft) S 180 10,3 C 16,4 C
12.06.2012 02:56 16,4 C 67 % 1002,8 hPa 0,0 l/m 0,0 km/h (0 Bft) S-SO 157 10,3 C 16,4 C
12.06.2012 03:01 16,4 C 68 % 1002,9 hPa 0,0 l/m 2,2 km/h (1 Bft) S-SO 157 10,5 C 16,4 C
12.06.2012 03:06 16,4 C 68 % 1002,9 hPa 0,0 l/m 0,0 km/h (0 Bft) SO 135 10,5 C 16,4 C
12.06.2012 03:11 16,3 C 68 % 1002,8 hPa 0,0 l/m 1,4 km/h (1 Bft) SO 135 10,4 C 16,3 C
12.06.2012 03:16 16,3 C 68 % 1002,8 hPa 0,0 l/m 0,0 km/h (0 Bft) SO 135 10,4 C 16,3 C
12.06.2012 03:21 16,2 C 68 % 1002,8 hPa 0,0 l/m 0,0 km/h (0 Bft) SO 135 10,3 C 16,2 C
12.06.2012 03:26 16,1 C 69 % 1002,8 hPa 0,0 l/m 1,8 km/h (1 Bft) O 90 10,4 C 16,1 C
12.06.2012 03:31 16,0 C 69 % 1002,8 hPa 0,0 l/m 0,0 km/h (0 Bft) O-SO 112 10,3 C 16,0 C
12.06.2012 03:36 15,9 C 70 % 1002,8 hPa 0,0 l/m 0,0 km/h (0 Bft) SO 135 10,4 C 15,9 C
12.06.2012 03:41 15,8 C 70 % 1002,9 hPa 0,0 l/m 2,2 km/h (1 Bft) O 90 10,3 C 15,8 C
12.06.2012 03:46 15,8 C 71 % 1002,8 hPa 0,0 l/m 0,0 km/h (0 Bft) O 90 10,6 C 15,8 C
12.06.2012 03:51 15,6 C 71 % 1002,8 hPa 0,0 l/m 0,0 km/h (0 Bft) O-NO 67 10,4 C 15,6 C
12.06.2012 03:56 15,5 C 72 % 1002,8 hPa 0,0 l/m 4,0 km/h (1 Bft) O-NO 67 10,5 C 15,5 C
12.06.2012 04:01 15,3 C 73 % 1002,7 hPa 0,0 l/m 4,3 km/h (1 Bft) O-NO 67 10,5 C 15,3 C
12.06.2012 04:06 15,1 C 73 % 1002,7 hPa 0,0 l/m 0,0 km/h (0 Bft) O-NO 67 10,3 C 15,1 C
12.06.2012 04:11 15,0 C 74 % 1002,7 hPa 0,0 l/m 0,0 km/h (0 Bft) O-NO 67 10,4 C 15,0 C
12.06.2012 04:16 14,9 C 75 % 1002,7 hPa 0,0 l/m 2,5 km/h (1 Bft) O-NO 67 10,5 C 14,9 C
12.06.2012 04:21 14,9 C 75 % 1002,8 hPa 0,0 l/m 1,4 km/h (1 Bft) O-NO 67 10,5 C 14,9 C
12.06.2012 04:26 14,9 C 75 % 1002,7 hPa 0,0 l/m 3,2 km/h (1 Bft) O-NO 67 10,5 C 14,9 C
12.06.2012 04:31 14,9 C 75 % 1002,7 hPa 0,0 l/m 3,2 km/h (1 Bft) O-NO 67 10,5 C 14,9 C
12.06.2012 04:36 14,9 C 76 % 1002,6 hPa 0,0 l/m 6,5 km/h (2 Bft) O 90 10,7 C 14,9 C
12.06.2012 04:41 14,8 C 77 % 1002,7 hPa 0,0 l/m 3,6 km/h (1 Bft) O 90 10,8 C 14,8 C
12.06.2012 04:46 14,6 C 77 % 1002,7 hPa 0,0 l/m 2,2 km/h (1 Bft) O 90 10,6 C 14,6 C
12.06.2012 04:51 14,6 C 78 % 1002,7 hPa 0,0 l/m 4,0 km/h (1 Bft) NO 45 10,8 C 14,6 C
12.06.2012 04:56 14,6 C 78 % 1002,6 hPa 0,0 l/m 3,6 km/h (1 Bft) O-NO 67 10,8 C 14,6 C
12.06.2012 05:01 14,6 C 79 % 1002,6 hPa 0,0 l/m 2,5 km/h (1 Bft) O 90 11,0 C 14,6 C
12.06.2012 05:06 14,6 C 79 % 1002,6 hPa 0,0 l/m 2,5 km/h (1 Bft) O-NO 67 11,0 C 14,6 C
12.06.2012 05:11 14,6 C 79 % 1002,6 hPa 0,0 l/m 3,6 km/h (1 Bft) O 90 11,0 C 14,6 C
12.06.2012 05:16 14,6 C 79 % 1002,7 hPa 0,5 l/m 0,0 km/h (0 Bft) O 90 11,0 C 14,6 C
12.06.2012 05:21 14,7 C 79 % 1002,5 hPa 0,0 l/m 0,0 km/h (0 Bft) O-NO 67 11,1 C 14,7 C
12.06.2012 05:26 14,8 C 79 % 1002,5 hPa 0,0 l/m 3,2 km/h (1 Bft) O-SO 112 11,2 C 14,8 C
12.06.2012 05:31 14,8 C 80 % 1002,5 hPa 0,0 l/m 0,0 km/h (0 Bft) O-NO 67 11,4 C 14,8 C
12.06.2012 05:36 14,8 C 80 % 1002,5 hPa 0,0 l/m 2,5 km/h (1 Bft) O-NO 67 11,4 C 14,8 C
12.06.2012 05:41 14,8 C 80 % 1002,5 hPa 0,0 l/m 0,0 km/h (0 Bft) O-NO 67 11,4 C 14,8 C
12.06.2012 05:46 14,9 C 80 % 1002,5 hPa 0,0 l/m 1,4 km/h (1 Bft) O 90 11,5 C 14,9 C
12.06.2012 05:51 14,8 C 80 % 1002,5 hPa 0,0 l/m 1,4 km/h (1 Bft) O 90 11,4 C 14,8 C
12.06.2012 05:56 14,8 C 80 % 1002,6 hPa 0,0 l/m 0,0 km/h (0 Bft) O 90 11,4 C 14,8 C
12.06.2012 06:01 14,8 C 80 % 1002,6 hPa 0,0 l/m 4,0 km/h (1 Bft) O 90 11,4 C 14,8 C
12.06.2012 06:06 14,8 C 80 % 1002,7 hPa 0,0 l/m 2,2 km/h (1 Bft) O-SO 112 11,4 C 14,8 C
12.06.2012 06:11 14,8 C 80 % 1002,6 hPa 0,0 l/m 2,5 km/h (1 Bft) O 90 11,4 C 14,8 C
12.06.2012 06:16 14,8 C 81 % 1002,6 hPa 0,0 l/m 2,5 km/h (1 Bft) SO 135 11,6 C 14,8 C
12.06.2012 06:21 14,8 C 81 % 1002,6 hPa 0,0 l/m 2,9 km/h (1 Bft) O-SO 112 11,6 C 14,8 C
12.06.2012 06:26 14,8 C 81 % 1002,7 hPa 0,0 l/m 4,0 km/h (1 Bft) O-SO 112 11,6 C 14,8 C
12.06.2012 06:31 14,8 C 81 % 1002,7 hPa 0,0 l/m 3,2 km/h (1 Bft) O-SO 112 11,6 C 14,8 C
12.06.2012 06:36 14,7 C 81 % 1002,6 hPa 0,0 l/m 3,2 km/h (1 Bft) O 90 11,5 C 14,7 C
12.06.2012 06:41 14,7 C 81 % 1002,6 hPa 0,0 l/m 4,0 km/h (1 Bft) O 90 11,5 C 14,7 C
12.06.2012 06:46 14,7 C 81 % 1002,6 hPa 0,0 l/m 1,8 km/h (1 Bft) O-NO 67 11,5 C 14,7 C
12.06.2012 06:51 14,8 C 81 % 1002,6 hPa 0,0 l/m 4,0 km/h (1 Bft) O 90 11,6 C 14,8 C
12.06.2012 06:56 14,9 C 81 % 1002,6 hPa 0,0 l/m 2,2 km/h (1 Bft) O 90 11,7 C 14,9 C
12.06.2012 07:01 14,9 C 81 % 1002,6 hPa 0,0 l/m 2,2 km/h (1 Bft) O-SO 112 11,7 C 14,9 C
12.06.2012 07:06 14,9 C 82 % 1002,7 hPa 0,0 l/m 2,2 km/h (1 Bft) O-NO 67 11,9 C 14,9 C
12.06.2012 07:11 14,9 C 81 % 1002,6 hPa 0,0 l/m 2,9 km/h (1 Bft) O 90 11,7 C 14,9 C
12.06.2012 07:16 14,8 C 82 % 1002,8 hPa 0,0 l/m 4,7 km/h (1 Bft) O-NO 67 11,8 C 14,8 C
12.06.2012 07:21 14,8 C 82 % 1002,8 hPa 0,0 l/m 4,7 km/h (1 Bft) O-NO 67 11,8 C 14,8 C
12.06.2012 07:26 14,6 C 82 % 1002,9 hPa 0,0 l/m 8,3 km/h (2 Bft) O 90 11,6 C 14,6 C
12.06.2012 07:31 14,6 C 83 % 1002,8 hPa 0,0 l/m 2,2 km/h (1 Bft) O-NO 67 11,7 C 14,6 C
12.06.2012 07:36 14,9 C 83 % 1002,6 hPa 0,0 l/m 4,0 km/h (1 Bft) O-NO 67 12,0 C 14,9 C
12.06.2012 07:41 14,9 C 83 % 1002,7 hPa 0,0 l/m 4,0 km/h (1 Bft) O-NO 67 12,0 C 14,9 C
12.06.2012 07:46 15,4 C 83 % 1002,6 hPa 0,0 l/m 5,0 km/h (1 Bft) O-SO 112 12,5 C 15,4 C
12.06.2012 07:51 15,8 C 82 % 1002,6 hPa 0,0 l/m 6,5 km/h (2 Bft) O-NO 67 12,7 C 15,8 C
12.06.2012 07:56 15,9 C 81 % 1002,6 hPa 0,0 l/m 2,9 km/h (1 Bft) SO 135 12,6 C 15,9 C
12.06.2012 08:01 16,3 C 81 % 1002,6 hPa 0,0 l/m 0,0 km/h (0 Bft) O 90 13,0 C 16,3 C
12.06.2012 08:06 16,6 C 80 % 1002,8 hPa 0,0 l/m 2,5 km/h (1 Bft) O 90 13,1 C 16,6 C
12.06.2012 08:11 16,9 C 79 % 1002,6 hPa 0,0 l/m 0,0 km/h (0 Bft) SO 135 13,2 C 16,9 C
12.06.2012 08:16 17,1 C 77 % 1002,7 hPa 0,0 l/m 0,0 km/h (0 Bft) O-SO 112 13,0 C 17,1 C
12.06.2012 08:21 17,2 C 77 % 1002,7 hPa 0,0 l/m 1,8 km/h (1 Bft) O-SO 112 13,1 C 17,2 C
12.06.2012 08:26 17,4 C 77 % 1002,7 hPa 0,0 l/m 0,0 km/h (0 Bft) O 90 13,3 C 17,4 C
12.06.2012 08:31 17,4 C 75 % 1002,8 hPa 0,0 l/m 3,2 km/h (1 Bft) O 90 12,9 C 17,4 C
12.06.2012 08:36 17,5 C 75 % 1002,8 hPa 0,0 l/m 0,0 km/h (0 Bft) O-SO 112 13,0 C 17,5 C
12.06.2012 08:41 17,8 C 76 % 1002,7 hPa 0,0 l/m 3,2 km/h (1 Bft) O 90 13,5 C 17,8 C
12.06.2012 08:46 17,9 C 74 % 1002,7 hPa 0,0 l/m 0,0 km/h (0 Bft) O-SO 112 13,2 C 17,9 C
12.06.2012 08:51 18,1 C 74 % 1002,7 hPa 0,0 l/m 5,4 km/h (1 Bft) S-SO 157 13,4 C 18,1 C
12.06.2012 08:56 18,4 C 72 % 1002,7 hPa 0,0 l/m 0,0 km/h (0 Bft) O-NO 67 13,3 C 18,4 C
12.06.2012 09:01 18,5 C 71 % 1002,7 hPa 0,0 l/m 3,6 km/h (1 Bft) SO 135 13,1 C 18,5 C
12.06.2012 09:06 18,5 C 71 % 1002,8 hPa 0,0 l/m 7,2 km/h (2 Bft) SO 135 13,1 C 18,5 C
12.06.2012 09:11 18,4 C 70 % 1002,7 hPa 0,0 l/m 1,4 km/h (1 Bft) O-SO 112 12,8 C 18,4 C
12.06.2012 09:16 18,4 C 70 % 1002,8 hPa 0,0 l/m 6,1 km/h (2 Bft) SO 135 12,8 C 18,4 C
12.06.2012 09:21 18,4 C 70 % 1002,7 hPa 0,0 l/m 3,2 km/h (1 Bft) S-SO 157 12,8 C 18,4 C
12.06.2012 09:26 18,5 C 70 % 1002,7 hPa 0,0 l/m 6,1 km/h (2 Bft) S-SO 157 12,9 C 18,5 C
12.06.2012 09:31 18,7 C 69 % 1002,8 hPa 0,0 l/m 0,0 km/h (0 Bft) O-SO 112 12,9 C 18,7 C
12.06.2012 09:36 18,7 C 68 % 1002,7 hPa 0,0 l/m 2,9 km/h (1 Bft) O-SO 112 12,7 C 18,7 C
12.06.2012 09:41 18,8 C 68 % 1002,7 hPa 0,0 l/m 2,5 km/h (1 Bft) S-SO 157 12,8 C 18,8 C
12.06.2012 09:46 18,8 C 69 % 1002,7 hPa 0,0 l/m 0,0 km/h (0 Bft) S-SO 157 13,0 C 18,8 C
12.06.2012 09:51 18,9 C 68 % 1002,8 hPa 0,0 l/m 0,0 km/h (0 Bft) S 180 12,9 C 18,9 C
12.06.2012 09:56 18,8 C 67 % 1002,6 hPa 0,0 l/m 2,2 km/h (1 Bft) S-SO 157 12,5 C 18,8 C
12.06.2012 10:01 18,7 C 67 % 1002,7 hPa 0,0 l/m 4,3 km/h (1 Bft) SO 135 12,4 C 18,7 C
12.06.2012 10:06 18,7 C 67 % 1002,8 hPa 0,0 l/m 5,8 km/h (2 Bft) SO 135 12,4 C 18,7 C
12.06.2012 10:11 18,6 C 67 % 1002,9 hPa 0,0 l/m 3,2 km/h (1 Bft) O-NO 67 12,3 C 18,6 C
12.06.2012 10:16 18,5 C 67 % 1002,7 hPa 0,0 l/m 6,1 km/h (2 Bft) O-SO 112 12,3 C 18,5 C
12.06.2012 10:21 18,4 C 68 % 1002,7 hPa 0,0 l/m 0,0 km/h (0 Bft) O-NO 67 12,4 C 18,4 C
12.06.2012 10:26 18,4 C 68 % 1002,7 hPa 0,0 l/m 3,2 km/h (1 Bft) SO 135 12,4 C 18,4 C
12.06.2012 10:31 18,4 C 68 % 1002,7 hPa 0,0 l/m 0,0 km/h (0 Bft) SO 135 12,4 C 18,4 C
12.06.2012 10:36 18,5 C 68 % 1002,7 hPa 0,0 l/m 0,0 km/h (0 Bft) O-SO 112 12,5 C 18,5 C
12.06.2012 10:41 18,8 C 68 % 1002,7 hPa 0,0 l/m 0,0 km/h (0 Bft) SO 135 12,8 C 18,8 C
12.06.2012 10:46 19,1 C 67 % 1002,7 hPa 0,0 l/m 3,2 km/h (1 Bft) O 90 12,8 C 19,1 C
12.06.2012 10:51 19,3 C 67 % 1002,7 hPa 0,0 l/m 2,9 km/h (1 Bft) S-SO 157 13,0 C 19,3 C
12.06.2012 10:56 19,4 C 67 % 1002,7 hPa 0,0 l/m 4,7 km/h (1 Bft) S-SO 157 13,1 C 19,4 C
12.06.2012 11:01 19,6 C 66 % 1002,6 hPa 0,0 l/m 2,9 km/h (1 Bft) SO 135 13,1 C 19,6 C
12.06.2012 11:06 19,8 C 65 % 1002,7 hPa 0,0 l/m 3,2 km/h (1 Bft) O-NO 67 13,0 C 19,8 C
12.06.2012 11:11 19,9 C 64 % 1002,6 hPa 0,0 l/m 0,0 km/h (0 Bft) O-SO 112 12,9 C 19,9 C
12.06.2012 11:16 19,9 C 64 % 1002,7 hPa 0,0 l/m 8,3 km/h (2 Bft) O 90 12,9 C 19,9 C
12.06.2012 11:21 20,0 C 64 % 1002,7 hPa 0,0 l/m 4,0 km/h (1 Bft) O 90 13,0 C 20,0 C
12.06.2012 11:26 19,6 C 65 % 1002,7 hPa 0,0 l/m 7,2 km/h (2 Bft) NO 45 12,8 C 19,6 C
12.06.2012 11:31 19,1 C 67 % 1002,8 hPa 0,0 l/m 7,2 km/h (2 Bft) O 90 12,8 C 19,1 C
12.06.2012 11:36 18,7 C 68 % 1002,7 hPa 0,0 l/m 13,3 km/h (3 Bft) O 90 12,7 C 18,7 C
12.06.2012 11:41 18,4 C 70 % 1002,9 hPa 0,0 l/m 10,1 km/h (2 Bft) O 90 12,8 C 18,4 C
12.06.2012 11:46 17,9 C 73 % 1002,8 hPa 4,7 l/m 10,1 km/h (2 Bft) O-NO 67 13,0 C 17,9 C
12.06.2012 11:51 17,4 C 75 % 1002,9 hPa 1,0 l/m 7,2 km/h (2 Bft) O 90 12,9 C 17,4 C
12.06.2012 11:56 17,2 C 77 % 1002,9 hPa 0,0 l/m 11,5 km/h (2 Bft) O-NO 67 13,1 C 17,2 C
12.06.2012 12:01 16,9 C 77 % 1002,8 hPa 0,5 l/m 3,2 km/h (1 Bft) O 90 12,8 C 16,9 C
12.06.2012 12:06 16,9 C 78 % 1002,9 hPa 0,0 l/m 4,7 km/h (1 Bft) O 90 13,0 C 16,9 C
12.06.2012 12:11 16,8 C 79 % 1002,8 hPa 0,0 l/m 12,6 km/h (3 Bft) O-SO 112 13,1 C 16,8 C
12.06.2012 12:16 17,0 C 80 % 1002,7 hPa 0,0 l/m 11,2 km/h (2 Bft) O-NO 67 13,5 C 17,0 C
12.06.2012 12:21 17,4 C 81 % 1002,7 hPa 0,0 l/m 8,3 km/h (2 Bft) O 90 14,1 C 17,4 C
12.06.2012 12:26 17,8 C 81 % 1002,8 hPa 0,0 l/m 6,1 km/h (2 Bft) O 90 14,5 C 17,8 C
12.06.2012 12:31 18,1 C 76 % 1002,8 hPa 0,0 l/m 9,7 km/h (2 Bft) O-NO 67 13,8 C 18,1 C
12.06.2012 12:36 17,9 C 75 % 1002,8 hPa 0,0 l/m 10,8 km/h (2 Bft) O-NO 67 13,4 C 17,9 C
12.06.2012 12:41 17,8 C 75 % 1003,0 hPa 0,0 l/m 11,5 km/h (2 Bft) O 90 13,3 C 17,8 C
12.06.2012 12:46 17,8 C 75 % 1002,9 hPa 0,0 l/m 5,8 km/h (2 Bft) O-SO 112 13,3 C 17,8 C
12.06.2012 12:51 17,6 C 75 % 1002,9 hPa 0,0 l/m 4,7 km/h (1 Bft) O 90 13,1 C 17,6 C
12.06.2012 12:56 17,5 C 74 % 1003,0 hPa 0,0 l/m 1,4 km/h (1 Bft) O-NO 67 12,8 C 17,5 C
12.06.2012 13:01 17,4 C 75 % 1003,2 hPa 0,0 l/m 1,8 km/h (1 Bft) N 360 12,9 C 17,4 C
12.06.2012 13:06 17,3 C 75 % 1003,3 hPa 0,0 l/m 7,9 km/h (2 Bft) N 360 12,8 C 17,3 C
12.06.2012 13:11 17,1 C 76 % 1003,5 hPa 4,7 l/m 3,2 km/h (1 Bft) N 360 12,8 C 17,1 C
12.06.2012 13:16 16,8 C 77 % 1003,4 hPa 7,8 l/m 6,5 km/h (2 Bft) O-NO 67 12,7 C 16,8 C
12.06.2012 13:21 16,4 C 78 % 1003,1 hPa 2,6 l/m 5,8 km/h (2 Bft) O-SO 112 12,6 C 16,4 C
12.06.2012 13:26 16,3 C 79 % 1003,3 hPa 0,5 l/m 2,9 km/h (1 Bft) O-NO 67 12,6 C 16,3 C
12.06.2012 13:31 16,6 C 79 % 1003,1 hPa 0,0 l/m 4,3 km/h (1 Bft) O-SO 112 12,9 C 16,6 C
12.06.2012 13:36 17,1 C 78 % 1003,1 hPa 0,0 l/m 4,7 km/h (1 Bft) O-NO 67 13,2 C 17,1 C
12.06.2012 13:41 17,4 C 77 % 1002,9 hPa 0,0 l/m 2,5 km/h (1 Bft) NO 45 13,3 C 17,4 C
12.06.2012 13:46 17,9 C 76 % 1002,9 hPa 0,0 l/m 0,0 km/h (0 Bft) O-NO 67 13,6 C 17,9 C
12.06.2012 13:51 18,4 C 74 % 1002,9 hPa 0,0 l/m 5,0 km/h (1 Bft) O 90 13,7 C 18,4 C
12.06.2012 13:56 18,5 C 73 % 1002,9 hPa 0,0 l/m 0,0 km/h (0 Bft) O-NO 67 13,6 C 18,5 C
12.06.2012 14:01 18,6 C 71 % 1003,0 hPa 0,0 l/m 4,0 km/h (1 Bft) SO 135 13,2 C 18,6 C
12.06.2012 14:06 18,9 C 70 % 1002,8 hPa 0,0 l/m 5,8 km/h (2 Bft) O 90 13,3 C 18,9 C
12.06.2012 14:11 19,3 C 68 % 1002,9 hPa 0,0 l/m 7,2 km/h (2 Bft) O-SO 112 13,2 C 19,3 C
12.06.2012 14:16 19,5 C 67 % 1002,8 hPa 0,0 l/m 6,1 km/h (2 Bft) O 90 13,2 C 19,5 C
12.06.2012 14:21 19,8 C 66 % 1002,8 hPa 0,0 l/m 1,8 km/h (1 Bft) O-NO 67 13,3 C 19,8 C
12.06.2012 14:26 19,9 C 66 % 1002,7 hPa 0,0 l/m 2,5 km/h (1 Bft) O-SO 112 13,4 C 19,9 C
12.06.2012 14:31 20,0 C 67 % 1002,7 hPa 0,0 l/m 3,2 km/h (1 Bft) NO 45 13,7 C 20,0 C
12.06.2012 14:36 19,9 C 68 % 1002,7 hPa 0,0 l/m 3,6 km/h (1 Bft) O-NO 67 13,8 C 19,9 C
12.06.2012 14:41 19,9 C 67 % 1002,7 hPa 0,0 l/m 3,6 km/h (1 Bft) O 90 13,6 C 19,9 C
12.06.2012 14:46 20,3 C 67 % 1002,7 hPa 0,0 l/m 0,0 km/h (0 Bft) N 360 14,0 C 20,3 C
12.06.2012 14:51 20,9 C 66 % 1002,6 hPa 0,0 l/m 5,4 km/h (1 Bft) N-NW 337 14,3 C 20,9 C
12.06.2012 14:56 21,1 C 65 % 1002,7 hPa 0,0 l/m 8,6 km/h (2 Bft) N-NO 22 14,3 C 21,1 C
12.06.2012 15:01 21,1 C 64 % 1002,6 hPa 0,0 l/m 2,5 km/h (1 Bft) N 360 14,0 C 21,1 C
12.06.2012 15:06 21,2 C 64 % 1002,6 hPa 0,0 l/m 2,5 km/h (1 Bft) O 90 14,1 C 21,2 C
12.06.2012 15:11 21,3 C 63 % 1002,7 hPa 0,0 l/m 2,2 km/h (1 Bft) NO 45 14,0 C 21,3 C
12.06.2012 15:16 21,3 C 63 % 1002,6 hPa 0,0 l/m 2,2 km/h (1 Bft) NO 45 14,0 C 21,3 C
12.06.2012 15:21 21,1 C 64 % 1002,7 hPa 0,0 l/m 5,8 km/h (2 Bft) N-NW 337 14,0 C 21,1 C
12.06.2012 15:26 21,0 C 63 % 1002,8 hPa 0,0 l/m 2,2 km/h (1 Bft) W-NW 292 13,7 C 21,0 C
12.06.2012 15:31 21,1 C 63 % 1002,8 hPa 0,0 l/m 3,2 km/h (1 Bft) W 270 13,8 C 21,1 C
12.06.2012 15:36 21,3 C 62 % 1003,0 hPa 0,0 l/m 3,6 km/h (1 Bft) NO 45 13,7 C 21,3 C
12.06.2012 15:41 21,4 C 62 % 1002,8 hPa 0,0 l/m 3,2 km/h (1 Bft) NW 315 13,8 C 21,4 C
12.06.2012 15:46 21,8 C 62 % 1002,9 hPa 0,0 l/m 2,5 km/h (1 Bft) W-NW 292 14,2 C 21,8 C
12.06.2012 15:51 21,8 C 60 % 1002,8 hPa 0,0 l/m 0,0 km/h (0 Bft) NO 45 13,7 C 21,8 C
12.06.2012 15:56 21,4 C 60 % 1002,9 hPa 0,0 l/m 2,2 km/h (1 Bft) O-NO 67 13,3 C 21,4 C
12.06.2012 16:01 21,1 C 60 % 1002,8 hPa 0,0 l/m 0,0 km/h (0 Bft) N-NW 337 13,0 C 21,1 C
12.06.2012 16:06 20,8 C 60 % 1003,0 hPa 0,0 l/m 0,0 km/h (0 Bft) N 360 12,7 C 20,8 C
12.06.2012 16:11 20,9 C 61 % 1003,0 hPa 0,0 l/m 0,0 km/h (0 Bft) O 90 13,1 C 20,9 C
12.06.2012 16:16 20,9 C 61 % 1003,0 hPa 0,0 l/m 2,9 km/h (1 Bft) O-NO 67 13,1 C 20,9 C
12.06.2012 16:21 20,9 C 60 % 1002,9 hPa 0,0 l/m 2,2 km/h (1 Bft) NO 45 12,8 C 20,9 C
12.06.2012 16:26 20,9 C 60 % 1002,8 hPa 0,0 l/m 5,4 km/h (1 Bft) O 90 12,8 C 20,9 C
12.06.2012 16:31 20,9 C 61 % 1002,9 hPa 0,0 l/m 3,6 km/h (1 Bft) SO 135 13,1 C 20,9 C
12.06.2012 16:36 21,1 C 62 % 1002,8 hPa 0,0 l/m 1,4 km/h (1 Bft) O-SO 112 13,5 C 21,1 C
12.06.2012 16:41 21,1 C 60 % 1002,7 hPa 0,0 l/m 3,6 km/h (1 Bft) SO 135 13,0 C 21,1 C
12.06.2012 16:46 20,9 C 61 % 1002,8 hPa 0,0 l/m 0,0 km/h (0 Bft) SO 135 13,1 C 20,9 C
12.06.2012 16:51 20,6 C 62 % 1003,0 hPa 0,0 l/m 3,6 km/h (1 Bft) O-SO 112 13,1 C 20,6 C
12.06.2012 16:56 20,4 C 62 % 1003,0 hPa 0,0 l/m 6,8 km/h (2 Bft) O-SO 112 12,9 C 20,4 C
12.06.2012 17:01 20,2 C 63 % 1003,1 hPa 0,0 l/m 0,0 km/h (0 Bft) O-SO 112 12,9 C 20,2 C
12.06.2012 17:06 20,0 C 64 % 1003,0 hPa 0,0 l/m 5,0 km/h (1 Bft) O-NO 67 13,0 C 20,0 C
12.06.2012 17:11 19,9 C 64 % 1003,2 hPa 0,0 l/m 0,0 km/h (0 Bft) SO 135 12,9 C 19,9 C
12.06.2012 17:16 19,9 C 65 % 1003,0 hPa 0,0 l/m 2,5 km/h (1 Bft) O 90 13,1 C 19,9 C
12.06.2012 17:21 19,8 C 65 % 1003,0 hPa 0,0 l/m 0,0 km/h (0 Bft) O 90 13,0 C 19,8 C
12.06.2012 17:26 19,6 C 66 % 1003,1 hPa 0,0 l/m 4,3 km/h (1 Bft) O-SO 112 13,1 C 19,6 C
12.06.2012 17:31 19,5 C 66 % 1003,1 hPa 0,0 l/m 0,0 km/h (0 Bft) O-SO 112 13,0 C 19,5 C
12.06.2012 17:36 19,5 C 67 % 1003,3 hPa 0,5 l/m 0,0 km/h (0 Bft) S-SO 157 13,2 C 19,5 C
12.06.2012 17:41 19,5 C 70 % 1003,4 hPa 3,6 l/m 6,1 km/h (2 Bft) W-SW 247 13,9 C 19,5 C
12.06.2012 17:46 19,2 C 70 % 1003,4 hPa 2,1 l/m 6,5 km/h (2 Bft) S-SW 202 13,6 C 19,2 C
12.06.2012 17:51 18,8 C 71 % 1003,5 hPa 3,1 l/m 6,5 km/h (2 Bft) W-SW 247 13,4 C 18,8 C
12.06.2012 17:56 18,4 C 72 % 1003,3 hPa 2,6 l/m 1,8 km/h (1 Bft) W 270 13,3 C 18,4 C
12.06.2012 18:01 18,3 C 72 % 1003,3 hPa 1,0 l/m 1,8 km/h (1 Bft) W-NW 292 13,2 C 18,3 C
12.06.2012 18:06 18,1 C 73 % 1003,3 hPa 0,5 l/m 0,0 km/h (0 Bft) W 270 13,2 C 18,1 C
12.06.2012 18:11 18,1 C 73 % 1003,2 hPa 0,0 l/m 0,0 km/h (0 Bft) S-SW 202 13,2 C 18,1 C
12.06.2012 18:16 17,9 C 75 % 1003,1 hPa 0,0 l/m 0,0 km/h (0 Bft) NO 45 13,4 C 17,9 C
12.06.2012 18:21 18,1 C 76 % 1003,3 hPa 0,5 l/m 10,1 km/h (2 Bft) W-NW 292 13,8 C 18,1 C
12.06.2012 18:26 18,4 C 74 % 1003,3 hPa 0,0 l/m 0,0 km/h (0 Bft) W-NW 292 13,7 C 18,4 C
12.06.2012 18:31 18,7 C 76 % 1003,4 hPa 0,0 l/m 5,0 km/h (1 Bft) N-NO 22 14,4 C 18,7 C
12.06.2012 18:36 18,9 C 74 % 1003,3 hPa 0,0 l/m 6,1 km/h (2 Bft) N-NO 22 14,2 C 18,9 C
12.06.2012 18:41 18,8 C 73 % 1003,2 hPa 0,0 l/m 4,3 km/h (1 Bft) NO 45 13,9 C 18,8 C
12.06.2012 18:46 18,4 C 73 % 1003,3 hPa 0,0 l/m 4,7 km/h (1 Bft) N 360 13,5 C 18,4 C
12.06.2012 18:51 18,2 C 74 % 1003,3 hPa 0,0 l/m 4,3 km/h (1 Bft) N-NO 22 13,5 C 18,2 C
12.06.2012 18:56 17,9 C 75 % 1003,4 hPa 0,0 l/m 4,0 km/h (1 Bft) NO 45 13,4 C 17,9 C
12.06.2012 19:01 17,9 C 76 % 1003,4 hPa 0,0 l/m 2,2 km/h (1 Bft) N-NO 22 13,6 C 17,9 C
12.06.2012 19:06 17,8 C 76 % 1003,4 hPa 0,0 l/m 4,0 km/h (1 Bft) NO 45 13,5 C 17,8 C
12.06.2012 19:11 17,8 C 76 % 1003,4 hPa 0,0 l/m 3,2 km/h (1 Bft) N-NO 22 13,5 C 17,8 C
12.06.2012 19:16 17,8 C 77 % 1003,4 hPa 0,0 l/m 3,6 km/h (1 Bft) NO 45 13,7 C 17,8 C
12.06.2012 19:21 17,9 C 77 % 1003,5 hPa 0,0 l/m 0,0 km/h (0 Bft) NO 45 13,8 C 17,9 C
12.06.2012 19:26 18,2 C 77 % 1003,4 hPa 0,0 l/m 1,1 km/h (1 Bft) N-NO 22 14,1 C 18,2 C
12.06.2012 19:31 18,3 C 77 % 1003,5 hPa 0,0 l/m 0,0 km/h (0 Bft) N 360 14,2 C 18,3 C
12.06.2012 19:36 18,5 C 77 % 1003,5 hPa 0,0 l/m 2,5 km/h (1 Bft) N-NW 337 14,4 C 18,5 C
12.06.2012 19:41 18,6 C 75 % 1003,6 hPa 0,0 l/m 1,4 km/h (1 Bft) O-NO 67 14,1 C 18,6 C
12.06.2012 19:46 18,8 C 74 % 1003,5 hPa 0,0 l/m 6,5 km/h (2 Bft) NO 45 14,1 C 18,8 C
12.06.2012 19:51 18,7 C 73 % 1003,5 hPa 0,0 l/m 3,6 km/h (1 Bft) NO 45 13,8 C 18,7 C
12.06.2012 19:56 18,7 C 73 % 1003,5 hPa 0,0 l/m 4,0 km/h (1 Bft) N-NO 22 13,8 C 18,7 C
12.06.2012 20:01 18,7 C 73 % 1003,5 hPa 0,0 l/m 5,0 km/h (1 Bft) N-NO 22 13,8 C 18,7 C
12.06.2012 20:06 18,7 C 73 % 1003,5 hPa 0,0 l/m 2,5 km/h (1 Bft) N 360 13,8 C 18,7 C
12.06.2012 20:11 18,6 C 73 % 1003,6 hPa 0,0 l/m 0,0 km/h (0 Bft) N 360 13,7 C 18,6 C
12.06.2012 20:16 18,6 C 74 % 1003,7 hPa 0,0 l/m 0,0 km/h (0 Bft) W-NW 292 13,9 C 18,6 C
12.06.2012 20:21 18,6 C 74 % 1003,7 hPa 0,0 l/m 5,0 km/h (1 Bft) W-NW 292 13,9 C 18,6 C
12.06.2012 20:26 18,5 C 74 % 1003,7 hPa 0,0 l/m 0,0 km/h (0 Bft) NW 315 13,8 C 18,5 C
12.06.2012 20:31 18,5 C 74 % 1003,8 hPa 0,0 l/m 0,0 km/h (0 Bft) N-NW 337 13,8 C 18,5 C
12.06.2012 20:36 18,4 C 74 % 1003,8 hPa 0,0 l/m 3,6 km/h (1 Bft) N 360 13,7 C 18,4 C
12.06.2012 20:41 18,1 C 74 % 1003,9 hPa 0,0 l/m 0,0 km/h (0 Bft) N-NO 22 13,4 C 18,1 C
12.06.2012 20:46 17,9 C 75 % 1004,0 hPa 0,0 l/m 2,2 km/h (1 Bft) NO 45 13,4 C 17,9 C
12.06.2012 20:51 17,7 C 75 % 1003,9 hPa 0,0 l/m 1,4 km/h (1 Bft) N-NO 22 13,2 C 17,7 C
12.06.2012 20:56 17,6 C 76 % 1003,8 hPa 0,0 l/m 0,0 km/h (0 Bft) N-NW 337 13,3 C 17,6 C
12.06.2012 21:01 17,5 C 76 % 1004,0 hPa 0,0 l/m 0,0 km/h (0 Bft) NO 45 13,2 C 17,5 C
12.06.2012 21:06 17,4 C 76 % 1004,0 hPa 0,0 l/m 1,1 km/h (1 Bft) NO 45 13,1 C 17,4 C
12.06.2012 21:11 17,4 C 76 % 1004,1 hPa 0,0 l/m 0,0 km/h (0 Bft) NW 315 13,1 C 17,4 C
12.06.2012 21:16 17,3 C 77 % 1004,2 hPa 0,0 l/m 1,4 km/h (1 Bft) NW 315 13,2 C 17,3 C
12.06.2012 21:21 17,3 C 77 % 1004,1 hPa 0,0 l/m 1,1 km/h (1 Bft) N-NW 337 13,2 C 17,3 C
12.06.2012 21:26 17,3 C 77 % 1004,4 hPa 0,0 l/m 0,0 km/h (0 Bft) N-NW 337 13,2 C 17,3 C
12.06.2012 21:31 17,2 C 77 % 1004,5 hPa 0,0 l/m 3,2 km/h (1 Bft) NW 315 13,1 C 17,2 C
12.06.2012 21:36 17,1 C 77 % 1004,5 hPa 0,0 l/m 2,5 km/h (1 Bft) W-NW 292 13,0 C 17,1 C
12.06.2012 21:41 17,0 C 77 % 1004,5 hPa 0,0 l/m 3,2 km/h (1 Bft) NW 315 12,9 C 17,0 C
12.06.2012 21:46 16,9 C 77 % 1004,7 hPa 0,0 l/m 0,0 km/h (0 Bft) W-NW 292 12,8 C 16,9 C
12.06.2012 21:51 16,8 C 78 % 1004,7 hPa 0,0 l/m 0,0 km/h (0 Bft) NW 315 12,9 C 16,8 C
12.06.2012 21:56 16,5 C 78 % 1004,8 hPa 0,0 l/m 4,0 km/h (1 Bft) N-NW 337 12,6 C 16,5 C
12.06.2012 22:01 16,3 C 79 % 1004,9 hPa 0,0 l/m 0,0 km/h (0 Bft) NO 45 12,6 C 16,3 C
12.06.2012 22:06 16,1 C 79 % 1005,0 hPa 0,0 l/m 2,2 km/h (1 Bft) N 360 12,5 C 16,1 C
12.06.2012 22:11 15,9 C 79 % 1005,0 hPa 0,0 l/m 4,3 km/h (1 Bft) NO 45 12,3 C 15,9 C
12.06.2012 22:16 15,8 C 80 % 1005,0 hPa 0,0 l/m 2,2 km/h (1 Bft) N 360 12,4 C 15,8 C
12.06.2012 22:21 15,6 C 80 % 1005,1 hPa 0,0 l/m 2,5 km/h (1 Bft) N 360 12,2 C 15,6 C
12.06.2012 22:26 15,5 C 80 % 1005,2 hPa 0,0 l/m 0,0 km/h (0 Bft) N-NW 337 12,1 C 15,5 C
12.06.2012 22:31 15,4 C 81 % 1005,2 hPa 0,0 l/m 0,0 km/h (0 Bft) N-NO 22 12,2 C 15,4 C
12.06.2012 22:36 15,4 C 81 % 1005,1 hPa 0,0 l/m 3,6 km/h (1 Bft) N-NO 22 12,2 C 15,4 C
12.06.2012 22:41 15,3 C 81 % 1005,0 hPa 0,0 l/m 1,4 km/h (1 Bft) N-NO 22 12,1 C 15,3 C
12.06.2012 22:46 15,2 C 82 % 1004,9 hPa 0,0 l/m 4,0 km/h (1 Bft) N-NO 22 12,1 C 15,2 C
12.06.2012 22:51 15,0 C 82 % 1004,9 hPa 0,0 l/m 3,6 km/h (1 Bft) N-NO 22 12,0 C 15,0 C
12.06.2012 22:56 14,9 C 82 % 1005,0 hPa 0,0 l/m 4,3 km/h (1 Bft) NO 45 11,9 C 14,9 C
12.06.2012 23:01 14,9 C 82 % 1005,1 hPa 0,0 l/m 3,2 km/h (1 Bft) N-NO 22 11,9 C 14,9 C
12.06.2012 23:06 14,9 C 83 % 1005,1 hPa 0,0 l/m 1,8 km/h (1 Bft) NO 45 12,0 C 14,9 C
12.06.2012 23:11 14,9 C 83 % 1005,3 hPa 0,0 l/m 0,0 km/h (0 Bft) N-NO 22 12,0 C 14,9 C
12.06.2012 23:16 14,9 C 83 % 1005,2 hPa 0,0 l/m 0,0 km/h (0 Bft) N-NO 22 12,0 C 14,9 C
12.06.2012 23:21 14,9 C 83 % 1005,3 hPa 0,0 l/m 1,8 km/h (1 Bft) N-NO 22 12,0 C 14,9 C
12.06.2012 23:26 14,9 C 83 % 1005,4 hPa 0,0 l/m 0,0 km/h (0 Bft) N-NW 337 12,0 C 14,9 C
12.06.2012 23:31 14,9 C 83 % 1005,4 hPa 0,0 l/m 0,0 km/h (0 Bft) N-NO 22 12,0 C 14,9 C
12.06.2012 23:36 14,9 C 83 % 1005,5 hPa 0,0 l/m 0,0 km/h (0 Bft) N 360 12,0 C 14,9 C
12.06.2012 23:41 14,9 C 83 % 1005,4 hPa 0,0 l/m 0,0 km/h (0 Bft) NO 45 12,0 C 14,9 C
12.06.2012 23:46 14,9 C 83 % 1005,4 hPa 0,0 l/m 2,9 km/h (1 Bft) NW 315 12,0 C 14,9 C
12.06.2012 23:51 14,9 C 83 % 1005,5 hPa 0,0 l/m 2,5 km/h (1 Bft) NW 315 12,0 C 14,9 C
12.06.2012 23:56 14,9 C 83 % 1005,5 hPa 0,0 l/m 4,0 km/h (1 Bft) W-NW 292 12,0 C 14,9 C
_ Min-Zeit 04:46 15:51 05:21 - 00:16 - - 00:01 04:46
Minimum _ 14,6 C 60 % 1002,5 hPa - 0,0 km/h (0 Bft) - - 9,5 C 14,6 C
_ Max-Zeit 15:46 07:31 23:36 13:16 11:36 - - 12:26 15:46
Maximum _ 21,8 C 83 % 1005,5 hPa 7,8 l/m 13,3 km/h
O (3 Bft)
- - 14,5 C 21,8 C
Durchschnitt _ 17,4 C 72 % 1003,2 hPa #36,3 l/m 2,8 km/h (1 Bft) O - 12,3 C 17,4 C
(c) by David Heller